Time;durP1;ratioP1;P1;durP2;ratioP2;P2;SDS_P1;SDS_P2;PMS_P1;PMS_P2;Temp;Humidity;BMP_temperature;BMP_pressure;BME280_temperature;BME280_humidity;BME280_pressure;Samples;Min_cycle;Max_cycle;Signal;HPM_P1;HPM_P2
2021/07/24 00:00:20;;;;;;;10.70;6.00;;;;;;;;;;5022203;28;20053;-74
2021/07/24 00:02:47;;;;;;;14.93;5.78;;;;;;;;;;5021051;28;20072;-74
2021/07/24 00:05:13;;;;;;;9.13;6.18;;;;;;;;;;5034955;28;20049;-75
2021/07/24 00:07:39;;;;;;;9.77;6.28;;;;;;;;;;5018234;28;20065;-74
2021/07/24 00:10:06;;;;;;;13.30;6.82;;;;;;;;;;5024259;28;20088;-74
2021/07/24 00:12:32;;;;;;;13.20;6.55;;;;;;;;;;5026083;28;20076;-75
2021/07/24 00:14:59;;;;;;;14.07;7.38;;;;;;;;;;5021421;28;20116;-74
2021/07/24 00:17:26;;;;;;;10.27;6.45;;;;;;;;;;5025343;28;20041;-74
2021/07/24 00:19:52;;;;;;;12.82;7.20;;;;;;;;;;5026500;28;20052;-74
2021/07/24 00:22:18;;;;;;;10.15;6.57;;;;;;;;;;5023269;28;20107;-74
2021/07/24 00:24:46;;;;;;;10.30;6.40;;;;;;;;;;5016841;28;20346;-74
2021/07/24 00:27:12;;;;;;;11.85;7.22;;;;;;;;;;5025674;28;20129;-74
2021/07/24 00:29:38;;;;;;;13.57;7.10;;;;;;;;;;5025995;28;20439;-74
2021/07/24 00:32:05;;;;;;;20.33;7.57;;;;;;;;;;5023840;28;20053;-74
2021/07/24 00:34:32;;;;;;;13.25;7.70;;;;;;;;;;5022352;28;20040;-74
2021/07/24 00:36:58;;;;;;;11.57;7.50;;;;;;;;;;5023480;28;20161;-74
2021/07/24 00:39:25;;;;;;;12.82;8.02;;;;;;;;;;5022746;28;20038;-74
2021/07/24 00:41:55;;;;;;;14.48;7.60;;;;;;;;;;5023319;28;20144;-74
2021/07/24 00:44:24;;;;;;;12.52;7.90;;;;;;;;;;5016170;28;20360;-74
2021/07/24 00:46:51;;;;;;;13.13;8.02;;;;;;;;;;5025590;28;21822;-74
2021/07/24 00:49:17;;;;;;;12.23;7.85;;;;;;;;;;5029393;28;20123;-74
2021/07/24 00:51:46;;;;;;;13.95;8.10;;;;;;;;;;5030135;28;20141;-74
2021/07/24 00:54:12;;;;;;;12.23;7.93;;;;;;;;;;5027551;28;20046;-75
2021/07/24 00:56:40;;;;;;;15.32;8.63;;;;;;;;;;5027204;28;20101;-74
2021/07/24 00:59:06;;;;;;;13.02;7.97;;;;;;;;;;5030005;28;20050;-74
2021/07/24 01:01:33;;;;;;;12.60;8.27;;;;;;;;;;5030015;28;20438;-74
2021/07/24 01:03:59;;;;;;;15.20;8.43;;;;;;;;;;5023327;28;20052;-74
2021/07/24 01:06:25;;;;;;;16.50;7.95;;;;;;;;;;5031351;28;20043;-74
2021/07/24 01:08:52;;;;;;;15.57;8.95;;;;;;;;;;5025753;28;20100;-75
2021/07/24 01:11:18;;;;;;;16.85;8.57;;;;;;;;;;5026804;28;20053;-74
2021/07/24 01:13:45;;;;;;;13.57;8.07;;;;;;;;;;5028704;28;20042;-74
2021/07/24 01:16:12;;;;;;;15.48;9.63;;;;;;;;;;5029033;28;20053;-74
2021/07/24 01:18:39;;;;;;;17.23;9.35;;;;;;;;;;5027370;28;20080;-74
2021/07/24 01:21:06;;;;;;;13.07;8.73;;;;;;;;;;5027909;28;21336;-74
2021/07/24 01:23:33;;;;;;;17.63;9.57;;;;;;;;;;5032698;28;20049;-74
2021/07/24 01:25:59;;;;;;;16.50;9.75;;;;;;;;;;5028181;28;20088;-74
2021/07/24 01:28:27;;;;;;;15.73;9.00;;;;;;;;;;5028746;28;20512;-74
2021/07/24 01:30:54;;;;;;;14.25;9.15;;;;;;;;;;5028834;28;20502;-74
2021/07/24 01:33:21;;;;;;;18.77;9.63;;;;;;;;;;5027486;28;20064;-74
2021/07/24 01:35:48;;;;;;;15.15;9.63;;;;;;;;;;5026501;28;20464;-74
2021/07/24 01:38:14;;;;;;;17.80;9.65;;;;;;;;;;5030092;28;20042;-74
2021/07/24 01:40:41;;;;;;;16.50;10.35;;;;;;;;;;5027831;28;20056;-74
2021/07/24 01:43:07;;;;;;;15.10;10.60;;;;;;;;;;5029169;28;20128;-74
2021/07/24 01:45:34;;;;;;;13.65;9.60;;;;;;;;;;5029431;28;20132;-74
2021/07/24 01:48:02;;;;;;;13.85;9.45;;;;;;;;;;5025629;28;20044;-74
2021/07/24 01:53:13;;;;;;;14.98;9.40;;;;;;;;;;5025530;28;20061;-74
2021/07/24 01:55:45;;;;;;;17.25;10.70;;;;;;;;;;5023931;28;20136;-74
2021/07/24 01:58:12;;;;;;;15.63;10.27;;;;;;;;;;5025002;28;20038;-74
2021/07/24 02:00:39;;;;;;;19.02;10.98;;;;;;;;;;5023748;28;20057;-74
2021/07/24 02:03:08;;;;;;;16.08;10.98;;;;;;;;;;5024965;28;20045;-74
2021/07/24 02:05:40;;;;;;;15.73;10.45;;;;;;;;;;5028539;28;20048;-75
2021/07/24 02:08:07;;;;;;;16.27;10.30;;;;;;;;;;5024888;28;20041;-74
2021/07/24 02:10:33;;;;;;;14.25;9.38;;;;;;;;;;5022692;28;20053;-74
2021/07/24 02:13:00;;;;;;;14.40;9.43;;;;;;;;;;5026332;28;20051;-74
2021/07/24 02:15:26;;;;;;;17.27;10.20;;;;;;;;;;5027891;28;20190;-74
2021/07/24 02:17:52;;;;;;;18.40;12.15;;;;;;;;;;5023911;28;20048;-74
2021/07/24 02:20:22;;;;;;;17.70;11.75;;;;;;;;;;5040204;28;20045;-74
2021/07/24 02:22:48;;;;;;;16.38;10.95;;;;;;;;;;5023250;28;20490;-74
2021/07/24 02:25:14;;;;;;;16.98;11.07;;;;;;;;;;5022906;28;20061;-74
2021/07/24 02:27:45;;;;;;;16.40;11.15;;;;;;;;;;5024853;28;20405;-74
2021/07/24 02:30:12;;;;;;;18.42;11.10;;;;;;;;;;5021006;28;20133;-74
2021/07/24 02:32:38;;;;;;;18.33;11.30;;;;;;;;;;5024048;28;20400;-74
2021/07/24 02:35:04;;;;;;;16.63;11.32;;;;;;;;;;5027080;28;20063;-74
2021/07/24 02:37:30;;;;;;;18.02;11.32;;;;;;;;;;5026252;28;20050;-74
2021/07/24 02:39:57;;;;;;;16.10;10.90;;;;;;;;;;5026571;28;20049;-74
2021/07/24 02:42:23;;;;;;;18.38;12.88;;;;;;;;;;5025105;28;20064;-74
2021/07/24 02:44:49;;;;;;;18.42;13.05;;;;;;;;;;5025417;28;20110;-74
2021/07/24 02:47:16;;;;;;;23.45;13.20;;;;;;;;;;5028349;28;20037;-74
2021/07/24 02:49:42;;;;;;;18.95;12.63;;;;;;;;;;5023134;28;20473;-74
2021/07/24 02:52:08;;;;;;;22.65;14.60;;;;;;;;;;5027961;28;20131;-74
2021/07/24 02:54:34;;;;;;;22.83;13.63;;;;;;;;;;5026966;28;20061;-74
2021/07/24 02:57:01;;;;;;;23.60;13.57;;;;;;;;;;5020271;28;20057;-74
2021/07/24 02:59:27;;;;;;;20.60;14.02;;;;;;;;;;5023726;28;20033;-74
2021/07/24 03:01:53;;;;;;;20.17;13.32;;;;;;;;;;5025417;28;20049;-74
2021/07/24 03:04:19;;;;;;;19.13;13.82;;;;;;;;;;5028404;28;20042;-74
2021/07/24 03:06:45;;;;;;;26.77;14.77;;;;;;;;;;5025422;28;20125;-74
2021/07/24 03:09:12;;;;;;;22.17;15.07;;;;;;;;;;5024295;28;20034;-74
2021/07/24 03:11:38;;;;;;;23.38;15.32;;;;;;;;;;5026471;28;20057;-74
2021/07/24 03:14:05;;;;;;;23.92;15.20;;;;;;;;;;5024680;28;20124;-74
2021/07/24 03:16:31;;;;;;;29.27;16.55;;;;;;;;;;5020376;28;20041;-74
2021/07/24 03:18:57;;;;;;;23.38;15.57;;;;;;;;;;5026192;28;20073;-74
2021/07/24 03:21:24;;;;;;;22.67;15.45;;;;;;;;;;5025899;28;20049;-74
2021/07/24 03:23:50;;;;;;;25.17;16.13;;;;;;;;;;5022400;28;20053;-74
2021/07/24 03:26:17;;;;;;;26.42;16.02;;;;;;;;;;5024305;28;20141;-74
2021/07/24 03:28:44;;;;;;;21.23;15.90;;;;;;;;;;5022079;28;20046;-74
2021/07/24 03:31:10;;;;;;;22.80;16.77;;;;;;;;;;5024090;28;20045;-74
2021/07/24 03:33:37;;;;;;;25.23;14.73;;;;;;;;;;5026195;28;20132;-74
2021/07/24 03:36:03;;;;;;;28.08;17.50;;;;;;;;;;5025685;28;20050;-74
2021/07/24 03:38:29;;;;;;;27.42;17.75;;;;;;;;;;5024735;28;20046;-74
2021/07/24 03:40:55;;;;;;;28.23;16.77;;;;;;;;;;5018671;28;20042;-74
2021/07/24 03:43:21;;;;;;;29.30;18.52;;;;;;;;;;5024116;28;20088;-74
2021/07/24 03:45:48;;;;;;;26.98;17.55;;;;;;;;;;5023812;28;20111;-74
2021/07/24 03:48:14;;;;;;;27.33;17.38;;;;;;;;;;5026130;28;20041;-74
2021/07/24 03:50:42;;;;;;;29.02;18.10;;;;;;;;;;5024132;28;20416;-74
2021/07/24 03:53:08;;;;;;;27.05;18.60;;;;;;;;;;5023213;28;20100;-74
2021/07/24 03:55:35;;;;;;;26.38;17.83;;;;;;;;;;5022388;28;20114;-74
2021/07/24 03:58:01;;;;;;;27.30;18.48;;;;;;;;;;5022139;28;20551;-74
2021/07/24 04:00:34;;;;;;;29.30;17.58;;;;;;;;;;5018877;28;20600;-74
2021/07/24 04:03:02;;;;;;;24.85;17.67;;;;;;;;;;5024397;28;20496;-74
2021/07/24 04:05:30;;;;;;;29.48;18.38;;;;;;;;;;5022776;28;20456;-74
2021/07/24 04:07:56;;;;;;;27.80;18.48;;;;;;;;;;5022754;28;20192;-74
2021/07/24 04:10:22;;;;;;;28.30;17.77;;;;;;;;;;5022869;28;20450;-74
2021/07/24 04:12:52;;;;;;;30.48;18.40;;;;;;;;;;5023487;28;20053;-74
2021/07/24 04:15:25;;;;;;;24.08;16.73;;;;;;;;;;5024000;28;20410;-74
2021/07/24 04:17:52;;;;;;;30.58;18.02;;;;;;;;;;5020863;28;20509;-74
2021/07/24 04:20:21;;;;;;;25.67;18.25;;;;;;;;;;5024543;28;20041;-74
2021/07/24 04:22:48;;;;;;;30.05;17.48;;;;;;;;;;5024524;28;20048;-74
2021/07/24 04:25:14;;;;;;;29.23;18.10;;;;;;;;;;5025681;28;20099;-74
2021/07/24 04:27:41;;;;;;;28.30;17.20;;;;;;;;;;5025977;28;20053;-74
2021/07/24 04:30:07;;;;;;;26.80;16.98;;;;;;;;;;5021584;28;20203;-74
2021/07/24 04:32:33;;;;;;;27.27;16.83;;;;;;;;;;5023939;28;20103;-74
2021/07/24 04:35:00;;;;;;;25.98;17.25;;;;;;;;;;5021119;28;21589;-74
2021/07/24 04:37:26;;;;;;;24.33;16.50;;;;;;;;;;5020819;28;20129;-74
2021/07/24 04:39:52;;;;;;;30.73;16.65;;;;;;;;;;5020361;28;20052;-74
2021/07/24 04:42:18;;;;;;;30.02;17.20;;;;;;;;;;5037863;28;20045;-74
2021/07/24 04:44:44;;;;;;;29.17;17.38;;;;;;;;;;5024322;28;20621;-74
2021/07/24 04:47:10;;;;;;;27.33;17.77;;;;;;;;;;5025913;28;20390;-74
2021/07/24 04:49:42;;;;;;;26.73;16.65;;;;;;;;;;5025533;28;20042;-74
2021/07/24 04:52:08;;;;;;;27.45;16.83;;;;;;;;;;5022152;28;20501;-74
2021/07/24 04:54:34;;;;;;;26.45;16.05;;;;;;;;;;5025414;28;20049;-74
2021/07/24 04:57:01;;;;;;;21.85;15.95;;;;;;;;;;5022760;28;20120;-74
2021/07/24 04:59:27;;;;;;;31.88;17.33;;;;;;;;;;5021648;28;20045;-74
2021/07/24 05:01:53;;;;;;;22.23;14.77;;;;;;;;;;5019366;28;20041;-74
2021/07/24 05:04:19;;;;;;;25.55;16.52;;;;;;;;;;5015723;28;20152;-74
2021/07/24 05:06:45;;;;;;;24.35;14.77;;;;;;;;;;5020055;28;20041;-74
2021/07/24 05:09:12;;;;;;;24.38;13.98;;;;;;;;;;5019926;28;20044;-74
2021/07/24 05:11:38;;;;;;;22.23;15.02;;;;;;;;;;5018937;28;20212;-74
2021/07/24 05:14:04;;;;;;;23.63;16.15;;;;;;;;;;5020881;28;20485;-74
2021/07/24 05:16:30;;;;;;;23.45;14.35;;;;;;;;;;5022395;28;20111;-74
2021/07/24 05:18:58;;;;;;;26.42;15.20;;;;;;;;;;5021910;28;20045;-74
2021/07/24 05:21:24;;;;;;;21.92;14.15;;;;;;;;;;5023360;28;20052;-74
2021/07/24 05:23:51;;;;;;;25.08;14.35;;;;;;;;;;5023646;28;20057;-74
2021/07/24 05:26:17;;;;;;;23.15;14.45;;;;;;;;;;5023521;28;20144;-74
2021/07/24 05:28:44;;;;;;;21.65;14.93;;;;;;;;;;5025958;28;20046;-74
2021/07/24 05:31:17;;;;;;;22.45;14.00;;;;;;;;;;5025324;28;20045;-74
2021/07/24 05:33:44;;;;;;;20.13;13.82;;;;;;;;;;5022662;28;20057;-74
2021/07/24 05:36:10;;;;;;;23.83;12.98;;;;;;;;;;5027658;28;20033;-74
2021/07/24 05:38:37;;;;;;;22.60;13.43;;;;;;;;;;5025193;28;20038;-74
2021/07/24 05:41:03;;;;;;;18.80;13.23;;;;;;;;;;5026300;28;20335;-76
2021/07/24 05:43:30;;;;;;;22.45;13.07;;;;;;;;;;5024236;28;20112;-74
2021/07/24 05:45:56;;;;;;;24.52;14.20;;;;;;;;;;5023900;28;20450;-74
2021/07/24 05:48:23;;;;;;;18.98;13.48;;;;;;;;;;5019412;28;20126;-74
2021/07/24 05:50:50;;;;;;;21.58;12.95;;;;;;;;;;5026872;28;20115;-77
2021/07/24 05:53:16;;;;;;;23.88;14.10;;;;;;;;;;5022353;28;20045;-74
2021/07/24 05:55:42;;;;;;;21.27;13.15;;;;;;;;;;5024857;28;20056;-73
2021/07/24 05:58:09;;;;;;;19.33;13.35;;;;;;;;;;5023136;28;20042;-74
2021/07/24 06:00:35;;;;;;;17.27;11.63;;;;;;;;;;5023754;28;20100;-73
2021/07/24 06:03:01;;;;;;;16.88;11.27;;;;;;;;;;5023918;28;20141;-73
2021/07/24 06:05:27;;;;;;;18.65;12.68;;;;;;;;;;5025703;28;20046;-74
2021/07/24 06:07:53;;;;;;;17.27;11.48;;;;;;;;;;5023929;28;20041;-75
2021/07/24 06:10:20;;;;;;;18.38;11.38;;;;;;;;;;5023600;28;20045;-75
2021/07/24 06:12:47;;;;;;;18.27;11.52;;;;;;;;;;5023993;28;20153;-75
2021/07/24 06:15:13;;;;;;;17.50;11.80;;;;;;;;;;5018646;28;20506;-75
2021/07/24 06:17:40;;;;;;;17.95;10.98;;;;;;;;;;5021820;28;20066;-75
2021/07/24 06:20:06;;;;;;;15.55;11.18;;;;;;;;;;5020236;28;20130;-75
2021/07/24 06:22:32;;;;;;;18.15;11.93;;;;;;;;;;5025074;28;20060;-75
2021/07/24 06:24:59;;;;;;;15.75;10.30;;;;;;;;;;5026067;28;20199;-75
2021/07/24 06:27:25;;;;;;;16.75;10.70;;;;;;;;;;5028286;28;20414;-75
2021/07/24 06:29:52;;;;;;;14.82;10.55;;;;;;;;;;5022649;28;20038;-75
2021/07/24 06:32:18;;;;;;;16.20;10.32;;;;;;;;;;5024653;28;20051;-77
2021/07/24 06:34:44;;;;;;;18.05;10.45;;;;;;;;;;5021030;28;20049;-76
2021/07/24 06:37:10;;;;;;;15.27;10.40;;;;;;;;;;5021709;28;20072;-77
2021/07/24 06:39:37;;;;;;;14.07;9.63;;;;;;;;;;5025819;28;20057;-76
2021/07/24 06:42:03;;;;;;;15.18;11.18;;;;;;;;;;5024743;28;20546;-76
2021/07/24 06:44:29;;;;;;;15.52;10.68;;;;;;;;;;5025088;28;20117;-76
2021/07/24 06:46:57;;;;;;;17.25;10.00;;;;;;;;;;5025192;28;20045;-76
2021/07/24 06:49:23;;;;;;;17.48;9.98;;;;;;;;;;5023336;28;20076;-76
2021/07/24 06:51:49;;;;;;;13.98;9.23;;;;;;;;;;5026801;28;20057;-76
2021/07/24 06:54:15;;;;;;;17.30;10.57;;;;;;;;;;5025112;28;20401;-77
2021/07/24 06:56:41;;;;;;;14.48;9.75;;;;;;;;;;5023428;28;20053;-77
2021/07/24 06:59:07;;;;;;;20.48;11.20;;;;;;;;;;5022496;28;20041;-77
2021/07/24 07:01:34;;;;;;;18.58;11.88;;;;;;;;;;5025251;28;20049;-77
2021/07/24 07:04:00;;;;;;;18.38;11.40;;;;;;;;;;5026727;28;20096;-76
2021/07/24 07:06:26;;;;;;;17.35;11.02;;;;;;;;;;5027256;28;20119;-77
2021/07/24 07:08:52;;;;;;;15.90;10.52;;;;;;;;;;5027715;28;20493;-77
2021/07/24 07:11:20;;;;;;;15.95;10.70;;;;;;;;;;5025337;28;20077;-77
2021/07/24 07:13:46;;;;;;;15.60;10.45;;;;;;;;;;5023710;28;20049;-77
2021/07/24 07:16:12;;;;;;;16.98;10.95;;;;;;;;;;5019301;28;20068;-77
2021/07/24 07:18:38;;;;;;;19.65;10.57;;;;;;;;;;5023363;28;20133;-77
2021/07/24 07:21:08;;;;;;;17.90;10.77;;;;;;;;;;5023449;28;20383;-76
2021/07/24 07:23:34;;;;;;;17.25;11.73;;;;;;;;;;5020672;28;20034;-76
2021/07/24 07:26:01;;;;;;;17.38;11.27;;;;;;;;;;5022874;28;20049;-80
2021/07/24 07:28:28;;;;;;;15.18;11.73;;;;;;;;;;5018817;28;20436;-76
2021/07/24 07:30:54;;;;;;;16.73;11.77;;;;;;;;;;5021586;28;20049;-77
2021/07/24 07:33:21;;;;;;;19.90;13.32;;;;;;;;;;5021333;28;20041;-76
2021/07/24 07:35:47;;;;;;;19.83;12.43;;;;;;;;;;5022522;28;20065;-77
2021/07/24 07:38:13;;;;;;;22.23;13.90;;;;;;;;;;5021204;28;20042;-77
2021/07/24 07:40:40;;;;;;;16.23;11.00;;;;;;;;;;5026673;28;20126;-77
2021/07/24 07:43:08;;;;;;;18.75;12.43;;;;;;;;;;5026367;28;20119;-77
2021/07/24 07:45:34;;;;;;;20.55;12.00;;;;;;;;;;5023708;28;20080;-77
2021/07/24 07:48:00;;;;;;;24.60;12.23;;;;;;;;;;5021613;28;20049;-77
2021/07/24 07:50:27;;;;;;;17.95;11.10;;;;;;;;;;5022714;28;20417;-77
2021/07/24 07:52:53;;;;;;;18.30;11.85;;;;;;;;;;5022781;28;20056;-77
2021/07/24 07:55:19;;;;;;;16.30;10.88;;;;;;;;;;5022068;28;20155;-77
2021/07/24 07:57:45;;;;;;;16.05;11.23;;;;;;;;;;5025309;28;20148;-77
2021/07/24 08:00:12;;;;;;;16.90;11.45;;;;;;;;;;5013760;28;20088;-77
2021/07/24 08:02:38;;;;;;;15.93;10.70;;;;;;;;;;5024790;28;20489;-77
2021/07/24 08:05:04;;;;;;;18.48;10.98;;;;;;;;;;5017677;28;20042;-77
2021/07/24 08:07:31;;;;;;;15.13;10.15;;;;;;;;;;5024642;28;20059;-77
2021/07/24 08:09:59;;;;;;;15.70;9.73;;;;;;;;;;5018809;28;20074;-78
2021/07/24 08:12:25;;;;;;;16.10;10.18;;;;;;;;;;5024707;28;20441;-77
2021/07/24 08:14:52;;;;;;;13.13;9.90;;;;;;;;;;5022014;28;20350;-77
2021/07/24 08:17:19;;;;;;;16.80;10.02;;;;;;;;;;5018762;28;20105;-77
2021/07/24 08:19:45;;;;;;;14.95;9.30;;;;;;;;;;5019929;28;20061;-77
2021/07/24 08:22:11;;;;;;;13.80;9.32;;;;;;;;;;5020265;28;20046;-77
2021/07/24 08:24:37;;;;;;;15.65;9.85;;;;;;;;;;5021798;28;20045;-77
2021/07/24 08:27:04;;;;;;;13.15;8.60;;;;;;;;;;5020958;28;20045;-77
2021/07/24 08:29:30;;;;;;;14.30;9.02;;;;;;;;;;5018997;28;20128;-77
2021/07/24 08:31:58;;;;;;;14.93;9.68;;;;;;;;;;5023725;28;21013;-77
2021/07/24 08:34:25;;;;;;;15.43;9.32;;;;;;;;;;5023817;28;20120;-77
2021/07/24 08:36:51;;;;;;;14.05;9.48;;;;;;;;;;5021659;28;20128;-77
2021/07/24 08:39:17;;;;;;;13.65;9.57;;;;;;;;;;5024036;28;20147;-76
2021/07/24 08:41:43;;;;;;;14.82;9.27;;;;;;;;;;5022155;28;20045;-77
2021/07/24 08:44:11;;;;;;;12.52;8.85;;;;;;;;;;5020193;28;20041;-77
2021/07/24 08:46:38;;;;;;;12.80;8.95;;;;;;;;;;5019693;28;20050;-76
2021/07/24 08:49:04;;;;;;;13.40;8.20;;;;;;;;;;5019248;28;20083;-77
2021/07/24 08:51:32;;;;;;;11.52;8.40;;;;;;;;;;5023395;28;20037;-76
2021/07/24 08:53:58;;;;;;;16.77;8.35;;;;;;;;;;5024573;28;20037;-77
2021/07/24 08:56:27;;;;;;;12.50;7.95;;;;;;;;;;5022811;28;20056;-77
2021/07/24 08:58:56;;;;;;;12.90;7.85;;;;;;;;;;5022516;28;20049;-77
2021/07/24 09:01:23;;;;;;;15.60;8.00;;;;;;;;;;5024785;28;20045;-77
2021/07/24 09:03:49;;;;;;;13.80;8.25;;;;;;;;;;5024678;28;20041;-77
2021/07/24 09:06:22;;;;;;;14.85;8.20;;;;;;;;;;5023107;28;20342;-77
2021/07/24 09:08:50;;;;;;;13.63;8.00;;;;;;;;;;5023912;28;20402;-77
2021/07/24 09:11:16;;;;;;;12.38;7.63;;;;;;;;;;5028622;28;20049;-77
2021/07/24 09:13:42;;;;;;;13.80;8.65;;;;;;;;;;5029515;28;20160;-77
2021/07/24 09:16:09;;;;;;;14.88;8.25;;;;;;;;;;5026437;28;20120;-77
2021/07/24 09:18:36;;;;;;;11.85;8.05;;;;;;;;;;5024397;28;20424;-77
2021/07/24 09:21:02;;;;;;;13.07;7.68;;;;;;;;;;5025708;28;20049;-77
2021/07/24 09:23:31;;;;;;;14.77;8.63;;;;;;;;;;5026403;28;20103;-77
2021/07/24 09:25:58;;;;;;;14.43;8.80;;;;;;;;;;5029201;28;20061;-77
2021/07/24 09:28:25;;;;;;;12.93;8.40;;;;;;;;;;5032559;28;20069;-77
2021/07/24 09:30:51;;;;;;;12.10;7.85;;;;;;;;;;5028658;28;20042;-77
2021/07/24 09:33:20;;;;;;;11.85;8.15;;;;;;;;;;5024510;28;20045;-77
2021/07/24 09:35:51;;;;;;;13.77;9.00;;;;;;;;;;5027165;28;20049;-77
2021/07/24 09:38:30;;;;;;;13.52;7.97;;;;;;;;;;5026763;28;20401;-77
2021/07/24 09:40:59;;;;;;;12.50;8.40;;;;;;;;;;5027537;28;20111;-77
2021/07/24 09:43:30;;;;;;;12.30;8.02;;;;;;;;;;5028226;28;20037;-77
2021/07/24 09:46:09;;;;;;;13.13;8.45;;;;;;;;;;5023503;28;20401;-77
2021/07/24 09:48:35;;;;;;;9.57;7.75;;;;;;;;;;5024608;28;20457;-77
2021/07/24 09:51:01;;;;;;;13.55;8.13;;;;;;;;;;5028132;28;20444;-77
2021/07/24 09:53:38;;;;;;;13.85;8.43;;;;;;;;;;5026333;28;20049;-77
2021/07/24 09:56:05;;;;;;;11.27;7.82;;;;;;;;;;5023133;28;20061;-78
2021/07/24 09:58:31;;;;;;;15.85;8.23;;;;;;;;;;5023121;28;20041;-77
2021/07/24 10:01:07;;;;;;;12.48;7.82;;;;;;;;;;5025341;28;20030;-78
2021/07/24 10:03:35;;;;;;;11.88;7.63;;;;;;;;;;5026708;28;20075;-77
2021/07/24 10:06:10;;;;;;;10.13;7.32;;;;;;;;;;5021706;28;20065;-75
2021/07/24 10:08:39;;;;;;;14.18;8.50;;;;;;;;;;5024555;28;20095;-75
2021/07/24 10:11:05;;;;;;;11.32;8.50;;;;;;;;;;5021954;28;20051;-75
2021/07/24 10:13:31;;;;;;;12.40;7.68;;;;;;;;;;5026443;28;20053;-75
2021/07/24 10:15:58;;;;;;;9.77;7.00;;;;;;;;;;5024646;28;20576;-75
2021/07/24 10:18:24;;;;;;;12.35;7.55;;;;;;;;;;5024664;28;20033;-75
2021/07/24 10:20:51;;;;;;;10.73;7.78;;;;;;;;;;5023641;28;20049;-75
2021/07/24 10:23:21;;;;;;;11.45;8.20;;;;;;;;;;5019711;28;20112;-76
2021/07/24 10:25:55;;;;;;;12.52;7.78;;;;;;;;;;5024292;28;20056;-75
2021/07/24 10:28:35;;;;;;;12.75;7.78;;;;;;;;;;5027802;28;20048;-75
2021/07/24 10:31:12;;;;;;;10.98;8.50;;;;;;;;;;5024304;28;20050;-75
2021/07/24 10:33:38;;;;;;;9.18;7.20;;;;;;;;;;5026006;28;20557;-75
2021/07/24 10:36:13;;;;;;;11.55;8.10;;;;;;;;;;5025799;28;20072;-75
2021/07/24 10:38:39;;;;;;;12.77;8.27;;;;;;;;;;5025196;28;20065;-75
2021/07/24 10:41:23;;;;;;;13.88;8.38;;;;;;;;;;5026098;28;20049;-78
2021/07/24 10:43:58;;;;;;;9.88;7.45;;;;;;;;;;5024447;28;20423;-78
2021/07/24 10:46:41;;;;;;;9.77;7.43;;;;;;;;;;5025482;28;20095;-78
2021/07/24 10:49:07;;;;;;;8.75;7.05;;;;;;;;;;5018929;28;20050;-76
2021/07/24 10:51:52;;;;;;;9.20;7.03;;;;;;;;;;5024696;28;20482;-77
2021/07/24 10:54:18;;;;;;;9.25;6.50;;;;;;;;;;5040196;28;20074;-77
2021/07/24 10:56:44;;;;;;;15.68;7.28;;;;;;;;;;5021656;28;20096;-77
2021/07/24 10:59:19;;;;;;;9.70;7.05;;;;;;;;;;5026895;28;20042;-77
2021/07/24 11:01:47;;;;;;;10.43;6.45;;;;;;;;;;5022244;28;20057;-77
2021/07/24 11:04:32;;;;;;;9.70;6.88;;;;;;;;;;5022715;28;20053;-77
2021/07/24 11:07:31;;;;;;;12.60;7.07;;;;;;;;;;5021222;28;20041;-77
2021/07/24 11:09:57;;;;;;;10.60;6.45;;;;;;;;;;5024185;28;20128;-78
2021/07/24 11:12:35;;;;;;;12.32;6.43;;;;;;;;;;5024281;28;20119;-78
2021/07/24 11:15:01;;;;;;;10.23;7.13;;;;;;;;;;5023877;28;20045;-78
2021/07/24 11:17:28;;;;;;;15.65;7.03;;;;;;;;;;5024021;28;20057;-78
2021/07/24 11:19:54;;;;;;;8.07;7.20;;;;;;;;;;5023587;28;20052;-77
2021/07/24 11:22:22;;;;;;;12.65;6.97;;;;;;;;;;5026343;28;20046;-77
2021/07/24 11:24:51;;;;;;;9.18;7.43;;;;;;;;;;5023011;28;20112;-77
2021/07/24 11:27:27;;;;;;;9.55;7.53;;;;;;;;;;5025998;28;20053;-78
2021/07/24 11:29:54;;;;;;;13.00;6.95;;;;;;;;;;5015385;28;20133;-77
2021/07/24 11:32:26;;;;;;;9.88;6.50;;;;;;;;;;5016976;28;20123;-77
2021/07/24 11:34:59;;;;;;;9.95;6.45;;;;;;;;;;5023359;28;20057;-77
2021/07/24 11:37:34;;;;;;;11.05;7.38;;;;;;;;;;5025282;28;20060;-77
2021/07/24 11:40:00;;;;;;;9.48;7.53;;;;;;;;;;5023384;28;20038;-77
2021/07/24 11:42:27;;;;;;;10.35;7.65;;;;;;;;;;5015649;28;20156;-78
2021/07/24 11:44:53;;;;;;;11.70;8.07;;;;;;;;;;5027034;28;20038;-78
2021/07/24 11:47:19;;;;;;;9.93;6.60;;;;;;;;;;5025316;28;20046;-78
2021/07/24 11:49:45;;;;;;;9.82;7.50;;;;;;;;;;5018566;28;20161;-77
2021/07/24 11:52:12;;;;;;;13.32;8.25;;;;;;;;;;5023132;28;20551;-77
2021/07/24 11:54:38;;;;;;;12.07;7.13;;;;;;;;;;5017340;28;20539;-77
2021/07/24 11:57:05;;;;;;;12.20;8.25;;;;;;;;;;5013810;28;20533;-78
2021/07/24 11:59:34;;;;;;;10.50;7.82;;;;;;;;;;5016837;28;20116;-78
2021/07/24 12:02:00;;;;;;;11.93;7.82;;;;;;;;;;5017605;28;20381;-77
2021/07/24 12:04:27;;;;;;;14.77;8.88;;;;;;;;;;5019223;28;20417;-78
2021/07/24 12:06:58;;;;;;;13.20;8.57;;;;;;;;;;5022726;28;20049;-77
2021/07/24 12:09:24;;;;;;;11.32;7.30;;;;;;;;;;5019170;28;20041;-78
2021/07/24 12:11:52;;;;;;;11.40;7.82;;;;;;;;;;5018516;28;20041;-79
2021/07/24 12:14:20;;;;;;;10.82;7.10;;;;;;;;;;5015275;28;20469;-79
2021/07/24 12:16:46;;;;;;;17.23;8.48;;;;;;;;;;5017572;28;20045;-79
2021/07/24 12:19:15;;;;;;;19.90;9.40;;;;;;;;;;5020385;28;20057;-79
2021/07/24 12:21:41;;;;;;;11.52;7.53;;;;;;;;;;5025807;28;20045;-79
2021/07/24 12:24:08;;;;;;;12.65;7.95;;;;;;;;;;5025593;28;20056;-79
2021/07/24 12:26:35;;;;;;;11.48;7.55;;;;;;;;;;5023887;28;20071;-79
2021/07/24 12:29:02;;;;;;;12.55;8.15;;;;;;;;;;5024458;28;20154;-79
2021/07/24 12:31:30;;;;;;;11.80;8.15;;;;;;;;;;5024532;28;20137;-79
2021/07/24 12:33:59;;;;;;;13.82;8.63;;;;;;;;;;5023340;28;20123;-79
2021/07/24 12:36:26;;;;;;;15.43;8.95;;;;;;;;;;5022757;28;20118;-79
2021/07/24 12:38:53;;;;;;;15.52;8.48;;;;;;;;;;5024161;28;20045;-79
2021/07/24 12:41:29;;;;;;;11.65;7.97;;;;;;;;;;5022413;28;20053;-79
2021/07/24 12:44:06;;;;;;;12.73;8.05;;;;;;;;;;5021939;28;20121;-79
2021/07/24 12:46:32;;;;;;;13.63;8.20;;;;;;;;;;5022837;28;20046;-79
2021/07/24 12:48:59;;;;;;;9.63;7.22;;;;;;;;;;5023324;28;20670;-79
2021/07/24 12:51:26;;;;;;;13.10;7.18;;;;;;;;;;5022545;28;20054;-79
2021/07/24 12:54:06;;;;;;;10.40;7.68;;;;;;;;;;5018986;28;20049;-79
2021/07/24 12:56:32;;;;;;;15.93;7.03;;;;;;;;;;5019868;28;20144;-79
2021/07/24 12:59:02;;;;;;;11.05;7.50;;;;;;;;;;5019971;28;20474;-79
2021/07/24 13:01:28;;;;;;;11.15;7.30;;;;;;;;;;5021711;28;20116;-79
2021/07/24 13:03:54;;;;;;;16.55;8.02;;;;;;;;;;5018560;28;20045;-79
2021/07/24 13:06:21;;;;;;;12.13;7.18;;;;;;;;;;5023692;28;20068;-78
2021/07/24 13:08:47;;;;;;;10.90;7.60;;;;;;;;;;5022992;28;20061;-79
2021/07/24 13:11:13;;;;;;;10.05;8.05;;;;;;;;;;5023792;28;20060;-79
2021/07/24 13:13:40;;;;;;;13.02;8.70;;;;;;;;;;5020683;28;20466;-79
2021/07/24 13:16:07;;;;;;;13.15;8.65;;;;;;;;;;5023869;28;20052;-79
2021/07/24 13:18:33;;;;;;;13.30;8.65;;;;;;;;;;5024373;28;20861;-79
2021/07/24 13:20:59;;;;;;;11.95;8.27;;;;;;;;;;5021866;28;20171;-79
2021/07/24 13:23:25;;;;;;;11.27;7.90;;;;;;;;;;5020259;28;20124;-79
2021/07/24 13:26:05;;;;;;;11.50;7.82;;;;;;;;;;5025479;28;20065;-79
2021/07/24 13:28:32;;;;;;;11.90;7.22;;;;;;;;;;5015804;28;20045;-79
2021/07/24 13:30:58;;;;;;;11.52;7.35;;;;;;;;;;5016054;28;20057;-79
2021/07/24 13:33:24;;;;;;;12.20;7.50;;;;;;;;;;5024951;28;20119;-79
2021/07/24 13:35:51;;;;;;;10.68;7.35;;;;;;;;;;5021110;28;20099;-79
2021/07/24 13:38:17;;;;;;;12.35;7.40;;;;;;;;;;5019972;28;20046;-79
2021/07/24 13:40:44;;;;;;;12.98;7.80;;;;;;;;;;5015892;28;20042;-79
2021/07/24 13:43:10;;;;;;;11.00;8.18;;;;;;;;;;5024448;28;20124;-79
2021/07/24 13:45:36;;;;;;;13.45;8.18;;;;;;;;;;5021227;28;20037;-79
2021/07/24 13:48:02;;;;;;;11.73;8.77;;;;;;;;;;5023981;28;20089;-79
2021/07/24 13:50:29;;;;;;;10.65;6.68;;;;;;;;;;5025501;28;20089;-79
2021/07/24 13:52:55;;;;;;;10.20;7.90;;;;;;;;;;5019806;28;20041;-79
2021/07/24 13:55:21;;;;;;;13.00;8.43;;;;;;;;;;5022414;28;20564;-79
2021/07/24 13:57:47;;;;;;;13.02;8.18;;;;;;;;;;5023133;28;20121;-79
2021/07/24 14:00:14;;;;;;;15.10;8.98;;;;;;;;;;5021121;28;20049;-79
2021/07/24 14:02:40;;;;;;;12.50;7.22;;;;;;;;;;5027870;28;20456;-79
2021/07/24 14:05:07;;;;;;;12.93;6.63;;;;;;;;;;5027078;28;20037;-78
2021/07/24 14:07:33;;;;;;;9.68;6.20;;;;;;;;;;5027368;28;20045;-79
2021/07/24 14:10:01;;;;;;;10.07;6.63;;;;;;;;;;5024794;28;20053;-79
2021/07/24 14:12:28;;;;;;;14.57;6.72;;;;;;;;;;5026989;28;20702;-79
2021/07/24 14:14:56;;;;;;;12.55;6.35;;;;;;;;;;5024537;28;20042;-79
2021/07/24 14:17:23;;;;;;;10.55;6.90;;;;;;;;;;5024545;28;20034;-79
2021/07/24 14:19:49;;;;;;;24.17;8.90;;;;;;;;;;5026985;28;20049;-79
2021/07/24 14:22:15;;;;;;;16.08;6.95;;;;;;;;;;5026508;28;20108;-79
2021/07/24 14:24:41;;;;;;;13.48;7.22;;;;;;;;;;5024318;28;20050;-79
2021/07/24 14:27:08;;;;;;;17.30;7.03;;;;;;;;;;5027829;28;20638;-79
2021/07/24 14:29:34;;;;;;;11.52;7.90;;;;;;;;;;5026088;28;20037;-79